GLD1440 PTKK-PTPN
Flight info
| Callsign | GLD1440 |
|---|---|
| Flight time | 1h 1m |
| Altitude | 39000 |
| Route | DCT MICNO R584 BIRUQ DCT |
| Aircraft | C700/M-SDFGIRY/S |
Departure
| Time | 2026-05-04 22:12 |
|---|---|
| Airport | Chuuk International Airport (PTKK) |
Arrival
| Time | 2026-05-04 23:13 |
|---|---|
| Airport | Pohnpei International Airport (PTPN) |
| Time | Latitude | Longitude | Altitude | Speed | Heading |
|---|---|---|---|---|---|
| 2026-05-04 22:00 | 7.45833 | 151.84137 | 14 ft | 0 kts | 163° |
| 2026-05-04 22:08 | 7.45830 | 151.84130 | 13 ft | 2 kts | 264° |
| 2026-05-04 22:09 | 7.45843 | 151.84090 | 14 ft | 9 kts | 288° |
| 2026-05-04 22:09 | 7.45851 | 151.84079 | 14 ft | 0 kts | 313° |
| 2026-05-04 22:10 | 7.45852 | 151.84078 | 14 ft | 1 kts | 313° |
| 2026-05-04 22:10 | 7.45878 | 151.84051 | 14 ft | 10 kts | 315° |
| 2026-05-04 22:10 | 7.45879 | 151.83985 | 14 ft | 13 kts | 230° |
| 2026-05-04 22:10 | 7.45788 | 151.83893 | 13 ft | 22 kts | 225° |
| 2026-05-04 22:11 | 7.45676 | 151.83767 | 13 ft | 17 kts | 239° |
| 2026-05-04 22:11 | 7.45634 | 151.83705 | 12 ft | 3 kts | 127° |
| 2026-05-04 22:11 | 7.45656 | 151.83754 | 13 ft | 12 kts | 49° |
| 2026-05-04 22:11 | 7.45941 | 151.84049 | 14 ft | 110 kts | 45° |
| 2026-05-04 22:12 | 7.46664 | 151.84801 | 268 ft | 178 kts | 48° |
| 2026-05-04 22:12 | 7.47585 | 151.85748 | 1081 ft | 191 kts | 49° |
| 2026-05-04 22:12 | 7.48579 | 151.86721 | 1970 ft | 212 kts | 45° |
| 2026-05-04 22:12 | 7.49823 | 151.87662 | 3029 ft | 239 kts | 27° |
| 2026-05-04 22:13 | 7.51542 | 151.87873 | 4155 ft | 266 kts | 352° |
| 2026-05-04 22:13 | 7.53211 | 151.87035 | 5651 ft | 273 kts | 318° |
| 2026-05-04 22:13 | 7.54248 | 151.85435 | 7113 ft | 277 kts | 287° |
| 2026-05-04 22:13 | 7.54371 | 151.83509 | 8553 ft | 279 kts | 257° |
| 2026-05-04 22:14 | 7.53537 | 151.81767 | 10030 ft | 278 kts | 227° |
| 2026-05-04 22:14 | 7.51963 | 151.80651 | 11314 ft | 284 kts | 201° |
| 2026-05-04 22:14 | 7.49991 | 151.80092 | 12146 ft | 309 kts | 191° |
| 2026-05-04 22:14 | 7.47808 | 151.79690 | 13274 ft | 320 kts | 189° |
| 2026-05-04 22:15 | 7.45579 | 151.79520 | 14477 ft | 326 kts | 173° |
| 2026-05-04 22:15 | 7.43473 | 151.80379 | 15599 ft | 334 kts | 144° |
| 2026-05-04 22:15 | 7.41979 | 151.82191 | 16727 ft | 345 kts | 117° |
| 2026-05-04 22:15 | 7.41442 | 151.84537 | 17816 ft | 357 kts | 92° |
| 2026-05-04 22:16 | 7.41956 | 151.87040 | 18795 ft | 368 kts | 71° |
| 2026-05-04 22:16 | 7.42929 | 151.89449 | 19750 ft | 374 kts | 69° |
| 2026-05-04 22:16 | 7.43879 | 151.91910 | 20676 ft | 380 kts | 72° |
| 2026-05-04 22:16 | 7.44646 | 151.94429 | 21595 ft | 385 kts | 77° |
| 2026-05-04 22:17 | 7.45185 | 151.97129 | 22521 ft | 390 kts | 83° |
| 2026-05-04 22:17 | 7.45320 | 151.99837 | 23403 ft | 394 kts | 94° |
| 2026-05-04 22:17 | 7.45028 | 152.02583 | 24158 ft | 398 kts | 100° |
| 2026-05-04 22:17 | 7.44608 | 152.05371 | 24927 ft | 402 kts | 99° |
| 2026-05-04 22:18 | 7.44315 | 152.08198 | 25679 ft | 408 kts | 95° |
| 2026-05-04 22:18 | 7.44198 | 152.11065 | 26404 ft | 412 kts | 94° |
| 2026-05-04 22:18 | 7.44039 | 152.13965 | 27138 ft | 416 kts | 96° |
| 2026-05-04 22:18 | 7.43773 | 152.16885 | 27859 ft | 420 kts | 97° |
| 2026-05-04 22:19 | 7.43516 | 152.19836 | 28572 ft | 425 kts | 96° |
| 2026-05-04 22:19 | 7.43317 | 152.22821 | 29245 ft | 430 kts | 95° |
| 2026-05-04 22:19 | 7.43117 | 152.25831 | 29916 ft | 434 kts | 95° |
| 2026-05-04 22:19 | 7.42878 | 152.28879 | 30488 ft | 438 kts | 96° |
| 2026-05-04 22:20 | 7.42636 | 152.31896 | 31033 ft | 442 kts | 95° |
| 2026-05-04 22:20 | 7.42409 | 152.34997 | 31587 ft | 446 kts | 95° |
| 2026-05-04 22:20 | 7.42196 | 152.38133 | 32112 ft | 450 kts | 94° |
| 2026-05-04 22:20 | 7.41986 | 152.41300 | 32642 ft | 454 kts | 94° |
| 2026-05-04 22:21 | 7.41765 | 152.44483 | 33167 ft | 457 kts | 94° |
| 2026-05-04 22:21 | 7.41537 | 152.47698 | 33634 ft | 461 kts | 94° |
| 2026-05-04 22:21 | 7.41313 | 152.50932 | 34076 ft | 465 kts | 94° |
| 2026-05-04 22:21 | 7.41092 | 152.54157 | 34496 ft | 468 kts | 94° |
| 2026-05-04 22:22 | 7.40864 | 152.57443 | 34922 ft | 471 kts | 94° |
| 2026-05-04 22:22 | 7.40634 | 152.60731 | 35347 ft | 474 kts | 94° |
| 2026-05-04 22:22 | 7.40402 | 152.64051 | 35901 ft | 473 kts | 94° |
| 2026-05-04 22:22 | 7.40173 | 152.67351 | 36546 ft | 471 kts | 94° |
| 2026-05-04 22:23 | 7.39944 | 152.70638 | 37178 ft | 470 kts | 94° |
| 2026-05-04 22:23 | 7.39715 | 152.73918 | 37759 ft | 468 kts | 94° |
| 2026-05-04 22:23 | 7.39487 | 152.77167 | 38305 ft | 467 kts | 94° |
| 2026-05-04 22:23 | 7.39258 | 152.80450 | 38781 ft | 466 kts | 94° |
| 2026-05-04 22:24 | 7.39028 | 152.83729 | 38890 ft | 473 kts | 94° |
| 2026-05-04 22:24 | 7.38562 | 152.90369 | 38890 ft | 477 kts | 94° |
| 2026-05-04 22:25 | 7.38093 | 152.97038 | 38896 ft | 477 kts | 94° |
| 2026-05-04 22:25 | 7.37623 | 153.03701 | 38892 ft | 477 kts | 94° |
| 2026-05-04 22:26 | 7.37153 | 153.10361 | 38898 ft | 477 kts | 94° |
| 2026-05-04 22:26 | 7.36681 | 153.17029 | 38899 ft | 477 kts | 94° |
| 2026-05-04 22:27 | 7.36208 | 153.23698 | 38898 ft | 477 kts | 94° |
| 2026-05-04 22:27 | 7.35734 | 153.30363 | 38906 ft | 477 kts | 94° |
| 2026-05-04 22:28 | 7.35262 | 153.36982 | 38899 ft | 476 kts | 94° |
| 2026-05-04 22:28 | 7.34787 | 153.43640 | 38899 ft | 476 kts | 94° |
| 2026-05-04 22:29 | 7.34311 | 153.50295 | 38902 ft | 476 kts | 94° |
| 2026-05-04 22:29 | 7.33834 | 153.56943 | 38901 ft | 476 kts | 94° |
| 2026-05-04 22:30 | 7.33357 | 153.63590 | 38907 ft | 475 kts | 94° |
| 2026-05-04 22:30 | 7.32879 | 153.70237 | 38903 ft | 475 kts | 94° |
| 2026-05-04 22:31 | 7.32400 | 153.76867 | 38907 ft | 474 kts | 94° |
| 2026-05-04 22:31 | 7.31922 | 153.83493 | 38904 ft | 474 kts | 94° |
| 2026-05-04 22:32 | 7.31446 | 153.90066 | 38902 ft | 474 kts | 94° |
| 2026-05-04 22:32 | 7.30965 | 153.96696 | 38902 ft | 474 kts | 94° |
| 2026-05-04 22:33 | 7.30483 | 154.03325 | 38900 ft | 474 kts | 94° |
| 2026-05-04 22:33 | 7.30000 | 154.09958 | 38901 ft | 475 kts | 94° |
| 2026-05-04 22:34 | 7.29516 | 154.16587 | 38902 ft | 474 kts | 94° |
| 2026-05-04 22:34 | 7.29031 | 154.23209 | 38907 ft | 473 kts | 94° |
| 2026-05-04 22:35 | 7.28550 | 154.29769 | 38906 ft | 473 kts | 94° |
| 2026-05-04 22:35 | 7.28062 | 154.36421 | 38904 ft | 473 kts | 94° |
| 2026-05-04 22:36 | 7.27577 | 154.43003 | 38900 ft | 473 kts | 94° |
| 2026-05-04 22:36 | 7.27090 | 154.49617 | 38903 ft | 473 kts | 94° |
| 2026-05-04 22:37 | 7.26602 | 154.56223 | 38906 ft | 472 kts | 94° |
| 2026-05-04 22:37 | 7.26114 | 154.62812 | 38906 ft | 472 kts | 94° |
| 2026-05-04 22:38 | 7.25626 | 154.69398 | 38903 ft | 471 kts | 94° |
| 2026-05-04 22:38 | 7.25136 | 154.75983 | 38906 ft | 471 kts | 94° |
| 2026-05-04 22:39 | 7.24646 | 154.82569 | 38911 ft | 472 kts | 94° |
| 2026-05-04 22:39 | 7.24156 | 154.89124 | 38908 ft | 472 kts | 94° |
| 2026-05-04 22:40 | 7.23663 | 154.95727 | 38905 ft | 472 kts | 94° |
| 2026-05-04 22:40 | 7.23173 | 155.02280 | 38921 ft | 460 kts | 94° |
| 2026-05-04 22:41 | 7.22692 | 155.08677 | 38916 ft | 462 kts | 94° |
| 2026-05-04 22:41 | 7.22208 | 155.15128 | 38914 ft | 462 kts | 94° |
| 2026-05-04 22:42 | 7.21721 | 155.21588 | 38915 ft | 462 kts | 95° |
| 2026-05-04 22:42 | 7.21233 | 155.28051 | 38916 ft | 462 kts | 94° |
| 2026-05-04 22:43 | 7.20745 | 155.34509 | 38911 ft | 462 kts | 95° |
| 2026-05-04 22:43 | 7.20256 | 155.40962 | 38912 ft | 462 kts | 95° |
| 2026-05-04 22:44 | 7.19770 | 155.47368 | 38916 ft | 462 kts | 95° |
| 2026-05-04 22:44 | 7.19278 | 155.53834 | 38916 ft | 462 kts | 95° |
| 2026-05-04 22:45 | 7.18787 | 155.60289 | 38916 ft | 462 kts | 95° |
| 2026-05-04 22:45 | 7.18048 | 155.69959 | 38915 ft | 461 kts | 95° |
| 2026-05-04 22:46 | 7.17557 | 155.76374 | 38915 ft | 461 kts | 95° |
| 2026-05-04 22:46 | 7.17063 | 155.82818 | 38919 ft | 461 kts | 95° |
| 2026-05-04 22:47 | 7.16568 | 155.89263 | 38917 ft | 461 kts | 95° |
| 2026-05-04 22:47 | 7.16073 | 155.95696 | 38914 ft | 462 kts | 95° |
| 2026-05-04 22:48 | 7.15576 | 156.02141 | 38912 ft | 462 kts | 95° |
| 2026-05-04 22:48 | 7.15078 | 156.08593 | 38918 ft | 462 kts | 95° |
| 2026-05-04 22:49 | 7.14579 | 156.15045 | 38915 ft | 462 kts | 95° |
| 2026-05-04 22:49 | 7.14165 | 156.20386 | 38912 ft | 462 kts | 95° |
| 2026-05-04 22:50 | 7.13663 | 156.26858 | 38917 ft | 462 kts | 95° |
| 2026-05-04 22:50 | 7.13160 | 156.33322 | 38919 ft | 462 kts | 95° |
| 2026-05-04 22:51 | 7.12662 | 156.39712 | 38158 ft | 460 kts | 95° |
| 2026-05-04 22:51 | 7.12414 | 156.42892 | 37405 ft | 451 kts | 95° |
| 2026-05-04 22:51 | 7.12173 | 156.45978 | 36681 ft | 443 kts | 95° |
| 2026-05-04 22:52 | 7.11933 | 156.49047 | 35976 ft | 437 kts | 95° |
| 2026-05-04 22:52 | 7.11695 | 156.52090 | 35286 ft | 434 kts | 95° |
| 2026-05-04 22:52 | 7.11458 | 156.55120 | 34621 ft | 436 kts | 95° |
| 2026-05-04 22:52 | 7.11218 | 156.58183 | 33966 ft | 442 kts | 95° |
| 2026-05-04 22:53 | 7.10973 | 156.61294 | 33247 ft | 448 kts | 95° |
| 2026-05-04 22:53 | 7.10728 | 156.64434 | 32537 ft | 450 kts | 95° |
| 2026-05-04 22:53 | 7.10480 | 156.67591 | 31847 ft | 452 kts | 95° |
| 2026-05-04 22:53 | 7.10234 | 156.70711 | 31188 ft | 453 kts | 95° |
| 2026-05-04 22:54 | 7.09985 | 156.73871 | 30529 ft | 451 kts | 95° |
| 2026-05-04 22:54 | 7.09739 | 156.77009 | 29866 ft | 447 kts | 95° |
| 2026-05-04 22:54 | 7.09494 | 156.80116 | 29112 ft | 443 kts | 95° |
| 2026-05-04 22:54 | 7.09251 | 156.83194 | 28379 ft | 438 kts | 95° |
| 2026-05-04 22:55 | 7.09011 | 156.86232 | 27662 ft | 433 kts | 95° |
| 2026-05-04 22:55 | 7.08774 | 156.89231 | 26954 ft | 427 kts | 95° |
| 2026-05-04 22:55 | 7.08539 | 156.92202 | 26273 ft | 423 kts | 95° |
| 2026-05-04 22:55 | 7.08308 | 156.95134 | 25604 ft | 419 kts | 95° |
| 2026-05-04 22:56 | 7.08076 | 156.98052 | 24949 ft | 415 kts | 95° |
| 2026-05-04 22:56 | 7.07846 | 157.00947 | 24310 ft | 412 kts | 95° |
| 2026-05-04 22:56 | 7.07619 | 157.03813 | 23687 ft | 409 kts | 95° |
| 2026-05-04 22:56 | 7.07397 | 157.06607 | 23098 ft | 403 kts | 95° |
| 2026-05-04 22:57 | 7.07175 | 157.09406 | 22461 ft | 399 kts | 95° |
| 2026-05-04 22:57 | 7.06955 | 157.12169 | 21842 ft | 394 kts | 95° |
| 2026-05-04 22:57 | 7.06737 | 157.14901 | 21237 ft | 389 kts | 95° |
| 2026-05-04 22:57 | 7.06522 | 157.17604 | 20637 ft | 385 kts | 95° |
| 2026-05-04 22:58 | 7.06309 | 157.20275 | 20054 ft | 381 kts | 95° |
| 2026-05-04 22:58 | 7.06098 | 157.22919 | 19479 ft | 376 kts | 95° |
| 2026-05-04 22:58 | 7.05890 | 157.25535 | 18914 ft | 372 kts | 95° |
| 2026-05-04 22:58 | 7.05683 | 157.28122 | 18364 ft | 368 kts | 95° |
| 2026-05-04 22:59 | 7.05479 | 157.30677 | 17754 ft | 364 kts | 94° |
| 2026-05-04 22:59 | 7.05279 | 157.33178 | 17135 ft | 361 kts | 94° |
| 2026-05-04 22:59 | 7.05079 | 157.35679 | 16519 ft | 357 kts | 94° |
| 2026-05-04 22:59 | 7.04879 | 157.38161 | 15919 ft | 353 kts | 94° |
| 2026-05-04 23:00 | 7.04683 | 157.40616 | 15329 ft | 350 kts | 94° |
| 2026-05-04 23:00 | 7.04488 | 157.43052 | 14749 ft | 346 kts | 94° |
| 2026-05-04 23:00 | 7.04294 | 157.45461 | 14182 ft | 344 kts | 94° |
| 2026-05-04 23:00 | 7.04104 | 157.47828 | 13613 ft | 334 kts | 94° |
| 2026-05-04 23:01 | 7.03919 | 157.50129 | 13023 ft | 325 kts | 93° |
| 2026-05-04 23:01 | 7.03741 | 157.52346 | 12604 ft | 312 kts | 93° |
| 2026-05-04 23:01 | 7.03570 | 157.54457 | 12205 ft | 301 kts | 93° |
| 2026-05-04 23:01 | 7.03402 | 157.56553 | 11802 ft | 292 kts | 93° |
| 2026-05-04 23:02 | 7.03243 | 157.58534 | 11427 ft | 285 kts | 93° |
| 2026-05-04 23:02 | 7.03084 | 157.60516 | 11056 ft | 282 kts | 93° |
| 2026-05-04 23:02 | 7.02926 | 157.62481 | 10684 ft | 281 kts | 93° |
| 2026-05-04 23:02 | 7.02768 | 157.64437 | 10315 ft | 280 kts | 93° |
| 2026-05-04 23:03 | 7.02611 | 157.66386 | 9949 ft | 279 kts | 93° |
| 2026-05-04 23:03 | 7.02454 | 157.68332 | 9563 ft | 277 kts | 93° |
| 2026-05-04 23:03 | 7.02295 | 157.70257 | 9190 ft | 275 kts | 94° |
| 2026-05-04 23:03 | 7.02089 | 157.72165 | 8825 ft | 273 kts | 95° |
| 2026-05-04 23:04 | 7.01904 | 157.74060 | 8470 ft | 271 kts | 94° |
| 2026-05-04 23:04 | 7.01722 | 157.75949 | 8105 ft | 271 kts | 94° |
| 2026-05-04 23:04 | 7.01534 | 157.77802 | 7756 ft | 269 kts | 94° |
| 2026-05-04 23:04 | 7.01344 | 157.79662 | 7403 ft | 266 kts | 94° |
| 2026-05-04 23:05 | 7.01159 | 157.81493 | 7057 ft | 260 kts | 94° |
| 2026-05-04 23:05 | 7.00978 | 157.83282 | 6719 ft | 254 kts | 94° |
| 2026-05-04 23:05 | 7.00800 | 157.85034 | 6385 ft | 249 kts | 93° |
| 2026-05-04 23:05 | 7.00629 | 157.86739 | 6045 ft | 231 kts | 93° |
| 2026-05-04 23:06 | 7.00472 | 157.88229 | 5741 ft | 205 kts | 92° |
| 2026-05-04 23:06 | 7.00335 | 157.89638 | 5473 ft | 199 kts | 92° |
| 2026-05-04 23:06 | 7.00195 | 157.91007 | 5220 ft | 194 kts | 92° |
| 2026-05-04 23:06 | 7.00063 | 157.92322 | 5077 ft | 185 kts | 92° |
| 2026-05-04 23:07 | 6.99932 | 157.93606 | 4835 ft | 184 kts | 92° |
| 2026-05-04 23:07 | 6.99805 | 157.94887 | 4598 ft | 185 kts | 92° |
| 2026-05-04 23:07 | 6.99722 | 157.95715 | 4433 ft | 188 kts | 92° |
| 2026-05-04 23:07 | 6.99586 | 157.97037 | 4179 ft | 191 kts | 92° |
| 2026-05-04 23:08 | 6.99451 | 157.98370 | 3922 ft | 191 kts | 92° |
| 2026-05-04 23:08 | 6.99316 | 157.99694 | 3670 ft | 188 kts | 92° |
| 2026-05-04 23:08 | 6.99186 | 158.00977 | 3429 ft | 185 kts | 92° |
| 2026-05-04 23:08 | 6.99056 | 158.02261 | 3177 ft | 183 kts | 92° |
| 2026-05-04 23:09 | 6.98926 | 158.03520 | 2938 ft | 180 kts | 92° |
| 2026-05-04 23:09 | 6.98802 | 158.04769 | 2695 ft | 178 kts | 92° |
| 2026-05-04 23:09 | 6.98676 | 158.05998 | 2460 ft | 176 kts | 92° |
| 2026-05-04 23:09 | 6.98560 | 158.07212 | 2233 ft | 174 kts | 89° |
| 2026-05-04 23:10 | 6.98568 | 158.08405 | 2099 ft | 166 kts | 86° |
| 2026-05-04 23:10 | 6.98567 | 158.09542 | 1968 ft | 157 kts | 87° |
| 2026-05-04 23:10 | 6.98553 | 158.10565 | 1784 ft | 131 kts | 86° |
| 2026-05-04 23:10 | 6.98549 | 158.11454 | 1609 ft | 124 kts | 85° |
| 2026-05-04 23:11 | 6.98551 | 158.12332 | 1448 ft | 125 kts | 87° |
| 2026-05-04 23:11 | 6.98543 | 158.13194 | 1288 ft | 123 kts | 86° |
| 2026-05-04 23:11 | 6.98542 | 158.14058 | 1125 ft | 121 kts | 87° |
| 2026-05-04 23:11 | 6.98537 | 158.14890 | 975 ft | 120 kts | 86° |
| 2026-05-04 23:12 | 6.98535 | 158.15755 | 834 ft | 126 kts | 86° |
| 2026-05-04 23:12 | 6.98535 | 158.16613 | 680 ft | 124 kts | 88° |
| 2026-05-04 23:12 | 6.98523 | 158.17512 | 529 ft | 131 kts | 88° |
| 2026-05-04 23:12 | 6.98524 | 158.18456 | 401 ft | 138 kts | 87° |
| 2026-05-04 23:13 | 6.98524 | 158.19353 | 201 ft | 118 kts | 88° |
| 2026-05-04 23:13 | 6.98512 | 158.20075 | 37 ft | 104 kts | 88° |
| 2026-05-04 23:13 | 6.98512 | 158.20698 | 12 ft | 71 kts | 91° |
| 2026-05-04 23:13 | 6.98510 | 158.21015 | 12 ft | 30 kts | 91° |
| 2026-05-04 23:14 | 6.98497 | 158.21194 | 12 ft | 12 kts | 53° |
| 2026-05-04 23:14 | 6.98510 | 158.21135 | 12 ft | 17 kts | 270° |
| 2026-05-04 23:14 | 6.98515 | 158.20955 | 12 ft | 34 kts | 273° |
| 2026-05-04 23:14 | 6.98518 | 158.20673 | 12 ft | 40 kts | 258° |
| 2026-05-04 23:15 | 6.98520 | 158.20479 | 12 ft | 13 kts | 203° |
| 2026-05-04 23:15 | 6.98513 | 158.20550 | 12 ft | 14 kts | 87° |
| 2026-05-04 23:15 | 6.98503 | 158.20655 | 12 ft | 15 kts | 124° |
| 2026-05-04 23:15 | 6.98465 | 158.20657 | 12 ft | 8 kts | 181° |
| 2026-05-04 23:16 | 6.98408 | 158.20624 | 12 ft | 18 kts | 265° |
| 2026-05-04 23:16 | 6.98409 | 158.20490 | 12 ft | 10 kts | 258° |
| 2026-05-04 23:16 | 6.98410 | 158.20413 | 12 ft | 15 kts | 273° |
| 2026-05-04 23:16 | 6.98354 | 158.20359 | 12 ft | 12 kts | 176° |
| 2026-05-04 23:17 | 6.98270 | 158.20371 | 12 ft | 9 kts | 144° |
| 2026-05-04 23:17 | 6.98216 | 158.20396 | 12 ft | 8 kts | 186° |
| 2026-05-04 23:17 | 6.98176 | 158.20396 | 12 ft | 0 kts | 178° |